createdAt,value
2018-05-25T00:02:19.465Z,4.47
2018-05-25T00:04:45.414Z,4.30
2018-05-25T00:07:11.371Z,4.43
2018-05-25T00:09:37.436Z,3.87
2018-05-25T00:12:03.394Z,5.07
2018-05-25T00:14:29.349Z,4.87
2018-05-25T00:16:56.090Z,3.93
2018-05-25T00:19:22.071Z,4.63
2018-05-25T00:21:48.023Z,4.77
2018-05-25T00:24:14.011Z,4.00
2018-05-25T00:26:40.738Z,4.57
2018-05-25T00:29:06.752Z,4.60
2018-05-25T00:31:32.720Z,4.40
2018-05-25T00:33:58.689Z,5.20
2018-05-25T00:36:24.683Z,4.90
2018-05-25T00:38:50.660Z,4.20
2018-05-25T00:41:16.641Z,3.90
2018-05-25T00:43:42.636Z,4.37
2018-05-25T00:46:08.720Z,5.17
2018-05-25T00:48:35.776Z,4.30
2018-05-25T00:51:01.722Z,5.20
2018-05-25T00:53:27.751Z,4.50
2018-05-25T00:55:53.739Z,4.77
2018-05-25T00:58:20.451Z,4.17
2018-05-25T01:00:46.417Z,4.63
2018-05-25T01:03:13.139Z,4.67
2018-05-25T01:05:39.171Z,5.20
2018-05-25T01:08:05.155Z,4.80
2018-05-25T01:10:31.139Z,4.23
2018-05-25T01:12:57.129Z,5.37
2018-05-25T01:15:23.256Z,4.83
2018-05-25T01:17:49.991Z,4.83
2018-05-25T01:20:15.978Z,5.30
2018-05-25T01:22:41.961Z,4.50
2018-05-25T01:25:07.980Z,4.70
2018-05-25T01:27:34.932Z,4.57
2018-05-25T01:30:00.890Z,5.47
2018-05-25T01:32:26.859Z,4.63
2018-05-25T01:34:52.814Z,5.47
2018-05-25T01:37:18.822Z,5.50
2018-05-25T01:39:45.554Z,4.67
2018-05-25T01:42:11.594Z,4.93
2018-05-25T01:44:38.317Z,5.00
2018-05-25T01:47:04.271Z,4.63
2018-05-25T01:49:30.250Z,4.73
2018-05-25T01:51:56.214Z,4.27
2018-05-25T01:54:22.222Z,5.00
2018-05-25T01:56:48.219Z,5.40
2018-05-25T01:59:14.270Z,4.87
2018-05-25T02:01:40.284Z,4.90
2018-05-25T02:04:06.295Z,5.33
2018-05-25T02:06:32.291Z,5.30
2018-05-25T02:08:59.014Z,5.80
2018-05-25T02:11:24.967Z,4.97
2018-05-25T02:13:51.845Z,4.60
2018-05-25T02:16:18.548Z,5.23
2018-05-25T02:18:44.512Z,5.43
2018-05-25T02:21:10.557Z,4.97
2018-05-25T02:23:37.475Z,5.57
2018-05-25T02:26:03.426Z,5.80
2018-05-25T02:28:29.449Z,4.97
2018-05-25T02:30:55.414Z,4.77
2018-05-25T02:33:21.370Z,5.40
2018-05-25T02:35:48.098Z,4.93
2018-05-25T02:38:14.100Z,5.00
2018-05-25T02:40:40.122Z,4.70
2018-05-25T02:43:06.099Z,5.10
2018-05-25T02:45:32.067Z,5.20
2018-05-25T02:47:58.940Z,5.53
2018-05-25T02:50:24.912Z,5.53
2018-05-25T02:52:50.874Z,4.83
2018-05-25T02:55:16.859Z,5.33
2018-05-25T02:57:42.882Z,5.57
2018-05-25T03:00:08.855Z,5.93
2018-05-25T03:02:34.846Z,5.80
2018-05-25T03:05:01.584Z,5.17
2018-05-25T03:07:28.308Z,4.50
2018-05-25T03:09:54.302Z,5.43
2018-05-25T03:12:20.275Z,4.80
2018-05-25T03:14:46.330Z,5.43
2018-05-25T03:17:12.330Z,6.57
2018-05-25T03:19:38.338Z,5.30
2018-05-25T03:22:04.303Z,5.00
2018-05-25T03:24:30.309Z,5.10
2018-05-25T03:26:57.011Z,4.90
2018-05-25T03:29:23.015Z,5.30
2018-05-25T03:31:49.040Z,6.07
2018-05-25T03:34:15.738Z,5.23
2018-05-25T03:36:41.736Z,5.07
2018-05-25T03:39:07.754Z,6.43
2018-05-25T03:41:34.484Z,5.60
2018-05-25T03:44:00.502Z,5.60
2018-05-25T03:46:27.203Z,5.13
2018-05-25T03:48:53.935Z,5.50
2018-05-25T03:51:19.951Z,5.73
2018-05-25T03:53:45.902Z,5.97
2018-05-25T03:56:18.826Z,5.40
2018-05-25T03:58:58.078Z,6.43
2018-05-25T04:01:37.269Z,5.50
2018-05-25T04:04:03.260Z,6.23
2018-05-25T04:06:29.988Z,5.70
2018-05-25T04:08:55.944Z,5.50
2018-05-25T04:11:22.666Z,6.07
2018-05-25T04:13:48.651Z,5.57
2018-05-25T04:16:14.606Z,6.40
2018-05-25T04:18:40.613Z,7.10
2018-05-25T04:21:07.331Z,7.50
2018-05-25T04:23:33.334Z,6.00
2018-05-25T04:25:59.345Z,6.70
2018-05-25T04:28:25.310Z,6.20
2018-05-25T04:30:51.351Z,5.53
2018-05-25T04:33:17.650Z,6.10
2018-05-25T04:35:44.387Z,6.40
2018-05-25T04:38:10.446Z,5.83
2018-05-25T04:40:36.450Z,6.03
2018-05-25T04:43:02.418Z,6.33
2018-05-25T04:45:29.187Z,7.40
2018-05-25T04:47:55.135Z,6.67
2018-05-25T04:50:21.126Z,6.23
2018-05-25T04:52:47.180Z,7.00
2018-05-25T04:55:13.889Z,6.80
2018-05-25T04:57:39.857Z,7.07
2018-05-25T05:00:05.872Z,6.60
2018-05-25T05:02:31.855Z,7.30
2018-05-25T05:04:58.571Z,6.70
2018-05-25T05:07:24.561Z,6.47
2018-05-25T05:09:50.579Z,6.03
2018-05-25T05:12:17.321Z,6.90
2018-05-25T05:14:44.467Z,5.97
2018-05-25T05:17:10.435Z,6.40
2018-05-25T05:19:37.204Z,6.60
2018-05-25T05:22:03.198Z,7.00
2018-05-25T05:24:29.264Z,7.43
2018-05-25T05:26:55.963Z,8.70
2018-05-25T05:29:22.006Z,7.33
2018-05-25T05:31:48.781Z,6.17
2018-05-25T05:34:14.743Z,6.57
2018-05-25T05:36:41.529Z,6.63
2018-05-25T05:39:07.550Z,6.67
2018-05-25T05:41:33.500Z,6.80
2018-05-25T05:43:59.825Z,6.93
2018-05-25T05:46:25.803Z,7.00
2018-05-25T05:48:51.791Z,6.87
2018-05-25T05:51:18.571Z,6.30
2018-05-25T05:53:44.529Z,6.00
2018-05-25T05:56:10.562Z,7.70
2018-05-25T05:58:36.584Z,6.80
2018-05-25T06:01:02.590Z,6.80
2018-05-25T06:03:29.324Z,6.63
2018-05-25T06:05:55.281Z,7.97
2018-05-25T06:08:22.023Z,6.93
2018-05-25T06:10:48.737Z,7.97
2018-05-25T06:13:14.735Z,9.23
2018-05-25T06:15:40.703Z,7.70
2018-05-25T06:18:06.700Z,7.87
2018-05-25T06:20:32.658Z,8.30
2018-05-25T06:22:58.677Z,7.13
2018-05-25T06:25:24.639Z,8.27
2018-05-25T06:27:50.614Z,7.10
2018-05-25T06:30:17.475Z,8.43
2018-05-25T06:32:43.472Z,8.47
2018-05-25T06:35:09.484Z,7.90
2018-05-25T06:37:35.478Z,7.00
2018-05-25T06:40:01.533Z,6.67
2018-05-25T06:42:28.286Z,7.60
2018-05-25T06:44:54.994Z,7.30
2018-05-25T06:47:20.946Z,7.17
2018-05-25T06:49:46.930Z,7.43
2018-05-25T06:52:13.127Z,7.30
2018-05-25T06:54:39.214Z,8.37
2018-05-25T06:57:05.207Z,8.30
2018-05-25T06:59:31.168Z,8.13
2018-05-25T07:01:57.908Z,7.80
2018-05-25T07:04:23.882Z,6.80
2018-05-25T07:06:49.867Z,6.30
2018-05-25T07:09:15.829Z,8.57
2018-05-25T07:11:42.600Z,6.90
2018-05-25T07:14:08.619Z,6.03
2018-05-25T07:16:35.618Z,6.40
2018-05-25T07:19:01.572Z,6.30
2018-05-25T07:21:27.539Z,6.43
2018-05-25T07:23:53.486Z,6.13
2018-05-25T07:26:20.222Z,5.33
2018-05-25T07:28:46.202Z,5.93
2018-05-25T07:31:12.213Z,5.00
2018-05-25T07:33:39.035Z,5.33
2018-05-25T07:36:05.051Z,5.50
2018-05-25T07:38:31.014Z,4.90
2018-05-25T07:40:56.995Z,4.37
2018-05-25T07:43:22.990Z,3.90
2018-05-25T07:45:48.946Z,4.60
2018-05-25T07:48:15.678Z,4.47
2018-05-25T07:50:41.662Z,4.43
2018-05-25T07:53:08.390Z,4.20
2018-05-25T07:55:34.415Z,4.10
2018-05-25T07:58:00.395Z,3.90
2018-05-25T08:00:26.399Z,3.80
2018-05-25T08:02:53.103Z,3.97
2018-05-25T08:05:19.051Z,4.57
2018-05-25T08:07:45.075Z,4.30
2018-05-25T08:10:11.090Z,4.20
2018-05-25T08:12:37.086Z,4.90
2018-05-25T08:15:03.041Z,4.80
2018-05-25T08:17:29.810Z,4.93
2018-05-25T08:19:55.849Z,4.80
2018-05-25T08:22:21.841Z,4.63
2018-05-25T08:24:47.831Z,4.33
2018-05-25T08:27:13.871Z,4.80
2018-05-25T08:29:39.862Z,4.87
2018-05-25T08:32:06.587Z,5.13
2018-05-25T08:34:37.626Z,4.50
2018-05-25T08:37:03.607Z,4.63
2018-05-25T08:39:29.602Z,4.57
2018-05-25T08:41:55.583Z,4.50
2018-05-25T08:44:21.606Z,4.50
2018-05-25T08:46:48.316Z,5.00
2018-05-25T08:49:14.279Z,5.13
2018-05-25T08:51:40.307Z,4.03
2018-05-25T08:54:06.468Z,4.77
2018-05-25T08:56:32.432Z,3.97
2018-05-25T08:58:59.154Z,4.77
2018-05-25T09:01:25.097Z,4.00
2018-05-25T09:03:51.102Z,4.17
2018-05-25T09:06:17.090Z,5.10
2018-05-25T09:08:43.821Z,4.30
2018-05-25T09:11:10.011Z,5.13
2018-05-25T09:13:35.991Z,4.40
2018-05-25T09:16:01.947Z,5.00
2018-05-25T09:18:27.985Z,4.77
2018-05-25T09:20:54.691Z,5.00
2018-05-25T09:23:20.677Z,4.00
2018-05-25T09:25:46.671Z,4.93
2018-05-25T09:28:12.772Z,5.00
2018-05-25T09:30:39.676Z,4.70
2018-05-25T09:33:05.659Z,3.83
2018-05-25T09:35:32.359Z,6.10
2018-05-25T09:37:58.398Z,4.73
2018-05-25T09:40:24.359Z,4.47
2018-05-25T09:42:50.406Z,3.97
2018-05-25T09:45:16.466Z,4.43
2018-05-25T09:47:43.240Z,4.23
2018-05-25T09:50:09.543Z,4.60
2018-05-25T09:52:35.490Z,4.40
2018-05-25T09:55:02.220Z,4.60
2018-05-25T09:57:28.179Z,4.97
2018-05-25T09:59:54.935Z,4.00
2018-05-25T10:02:21.627Z,4.70
2018-05-25T10:04:47.587Z,3.60
2018-05-25T10:07:13.708Z,4.97
2018-05-25T10:09:39.769Z,3.80
2018-05-25T10:12:05.735Z,3.60
2018-05-25T10:14:32.492Z,4.30
2018-05-25T10:16:59.218Z,4.03
2018-05-25T10:19:25.962Z,3.30
2018-05-25T10:21:51.946Z,4.03
2018-05-25T10:24:18.007Z,4.40
2018-05-25T10:26:44.035Z,3.80
2018-05-25T10:29:10.084Z,3.80
2018-05-25T10:31:36.092Z,4.43
2018-05-25T10:34:02.786Z,3.70
2018-05-25T10:36:28.773Z,4.20
2018-05-25T10:38:55.507Z,3.90
2018-05-25T10:41:21.463Z,4.13
2018-05-25T10:43:48.171Z,3.97
2018-05-25T10:46:14.184Z,4.77
2018-05-25T10:48:41.341Z,4.63
2018-05-25T10:51:07.338Z,4.50
2018-05-25T10:53:33.298Z,4.20
2018-05-25T10:55:59.335Z,4.70
2018-05-25T10:58:25.358Z,3.90
2018-05-25T11:00:52.075Z,4.80
2018-05-25T11:03:18.034Z,4.40
2018-05-25T11:05:44.058Z,6.00
2018-05-25T11:08:11.864Z,5.07
2018-05-25T11:10:39.625Z,4.00
2018-05-25T11:13:07.441Z,5.23
2018-05-25T11:15:35.193Z,4.60
2018-05-25T11:18:02.962Z,4.80
2018-05-25T11:20:29.755Z,4.83
2018-05-25T11:22:55.789Z,6.00
2018-05-25T11:25:21.750Z,4.60
2018-05-25T11:27:47.727Z,5.27
2018-05-25T11:30:13.729Z,5.00
2018-05-25T11:32:39.864Z,5.13
2018-05-25T11:35:05.897Z,5.80
2018-05-25T11:37:31.859Z,5.50
2018-05-25T11:39:57.842Z,6.10
2018-05-25T11:42:24.535Z,5.23
2018-05-25T11:44:50.533Z,5.90
2018-05-25T11:47:17.023Z,5.73
2018-05-25T11:49:43.009Z,6.40
2018-05-25T11:52:09.936Z,5.07
2018-05-25T11:54:36.039Z,5.60
2018-05-25T11:57:02.022Z,5.10
2018-05-25T11:59:28.019Z,5.33
2018-05-25T12:01:54.054Z,4.93
2018-05-25T12:04:20.029Z,5.20
2018-05-25T12:06:46.015Z,5.70
2018-05-25T12:09:12.767Z,5.47
2018-05-25T12:11:38.759Z,4.60
2018-05-25T12:14:04.783Z,4.73
2018-05-25T12:16:31.566Z,4.90
2018-05-25T12:18:58.290Z,5.33
2018-05-25T12:21:24.275Z,5.23
2018-05-25T12:23:50.229Z,5.10
2018-05-25T12:26:16.228Z,6.00
2018-05-25T12:28:42.964Z,5.43
2018-05-25T12:31:09.041Z,5.30
2018-05-25T12:33:35.075Z,5.70
2018-05-25T12:36:01.303Z,5.50
2018-05-25T12:38:28.055Z,6.50
2018-05-25T12:40:54.867Z,5.00
2018-05-25T12:43:21.097Z,5.00
2018-05-25T12:45:47.088Z,5.20
2018-05-25T12:48:13.876Z,5.40
2018-05-25T12:50:40.304Z,5.40
2018-05-25T12:53:06.278Z,5.37
2018-05-25T12:55:32.232Z,4.87
2018-05-25T12:57:58.227Z,5.60
2018-05-25T13:00:24.215Z,4.60
2018-05-25T13:02:50.206Z,5.50
2018-05-25T13:05:16.198Z,4.80
2018-05-25T13:07:42.942Z,5.50
2018-05-25T13:10:08.971Z,5.80
2018-05-25T13:12:35.001Z,5.70
2018-05-25T13:15:00.954Z,4.90
2018-05-25T13:17:26.953Z,5.23
2018-05-25T13:19:52.918Z,5.50
2018-05-25T13:22:18.914Z,5.03
2018-05-25T13:24:44.939Z,5.33
2018-05-25T13:27:10.959Z,5.17
2018-05-25T13:29:36.944Z,4.97
2018-05-25T13:32:02.921Z,6.03
2018-05-25T13:34:29.609Z,4.80
2018-05-25T13:36:55.603Z,5.87
2018-05-25T13:39:22.326Z,5.30
2018-05-25T13:41:48.311Z,4.77
2018-05-25T13:44:15.074Z,5.27
2018-05-25T13:46:41.143Z,5.43
2018-05-25T13:49:07.158Z,5.33
2018-05-25T13:51:33.122Z,5.07
2018-05-25T13:53:59.128Z,5.03
2018-05-25T13:56:25.101Z,5.80
2018-05-25T13:58:51.103Z,4.57
2018-05-25T14:01:17.047Z,4.90
2018-05-25T14:03:43.160Z,5.33
2018-05-25T14:06:09.170Z,4.77
2018-05-25T14:08:35.975Z,5.50
2018-05-25T14:11:01.936Z,5.30
2018-05-25T14:13:28.027Z,6.07
2018-05-25T14:15:54.253Z,5.53
2018-05-25T14:18:20.947Z,5.30
2018-05-25T14:20:46.997Z,4.83
2018-05-25T14:23:12.982Z,5.10
2018-05-25T14:25:39.805Z,5.10
2018-05-25T14:28:06.017Z,4.50
2018-05-25T14:30:32.019Z,5.10
2018-05-25T14:32:58.751Z,4.87
2018-05-25T14:35:25.587Z,5.70
2018-05-25T14:37:52.294Z,4.93
2018-05-25T14:40:18.279Z,5.20
2018-05-25T14:42:44.292Z,5.30
2018-05-25T14:45:10.312Z,4.90
2018-05-25T14:47:36.325Z,5.00
2018-05-25T14:50:03.010Z,6.00
2018-05-25T14:52:28.962Z,5.03
2018-05-25T14:54:54.983Z,4.03
2018-05-25T14:57:20.960Z,5.27
2018-05-25T14:59:47.001Z,4.90
2018-05-25T15:02:13.089Z,5.00
2018-05-25T15:04:39.240Z,5.47
2018-05-25T15:07:05.252Z,5.30
2018-05-25T15:09:31.266Z,5.27
2018-05-25T15:11:57.255Z,6.23
2018-05-25T15:14:23.227Z,5.60
2018-05-25T15:16:49.243Z,5.23
2018-05-25T15:19:17.064Z,5.00
2018-05-25T15:21:44.854Z,5.27
2018-05-25T15:24:12.700Z,4.83
2018-05-25T15:26:40.518Z,5.40
2018-05-25T15:29:08.328Z,4.63
2018-05-25T15:31:36.097Z,5.30
2018-05-25T15:34:03.882Z,4.67
2018-05-25T15:36:31.674Z,5.43
2018-05-25T15:38:57.679Z,6.13
2018-05-25T15:41:23.698Z,5.40
2018-05-25T15:43:50.411Z,5.17
2018-05-25T15:46:16.409Z,4.57
2018-05-25T15:48:42.519Z,5.00
2018-05-25T15:51:09.335Z,4.83
2018-05-25T15:53:35.383Z,5.30
2018-05-25T15:56:01.423Z,4.70
2018-05-25T15:58:28.894Z,4.30
2018-05-25T16:00:54.894Z,5.20
2018-05-25T16:03:20.899Z,4.60
2018-05-25T16:05:47.595Z,5.10
2018-05-25T16:08:13.623Z,4.63
2018-05-25T16:10:39.811Z,4.50
2018-05-25T16:13:06.562Z,4.93
2018-05-25T16:15:32.571Z,4.97
2018-05-25T16:17:58.576Z,5.10
2018-05-25T16:20:24.559Z,4.23
2018-05-25T16:22:50.546Z,5.07
2018-05-25T16:27:40.426Z,4.90
2018-05-25T16:30:06.391Z,5.53
2018-05-25T16:32:33.137Z,5.50
2018-05-25T16:34:59.854Z,5.50
2018-05-25T16:37:25.854Z,5.33
2018-05-25T16:39:51.839Z,5.60
2018-05-25T16:42:17.907Z,5.53
2018-05-25T16:44:43.919Z,5.20
2018-05-25T16:47:09.984Z,5.27
2018-05-25T16:49:36.008Z,5.43
2018-05-25T16:52:02.739Z,5.00
2018-05-25T16:54:28.750Z,5.30
2018-05-25T16:56:54.712Z,5.30
2018-05-25T16:59:20.764Z,4.67
2018-05-25T17:01:46.743Z,5.20
2018-05-25T17:04:12.762Z,5.00
2018-05-25T17:06:39.717Z,5.50
2018-05-25T17:09:05.715Z,5.10
2018-05-25T17:11:31.738Z,6.03
2018-05-25T17:13:57.727Z,5.40
2018-05-25T17:16:24.427Z,6.20
2018-05-25T17:18:50.450Z,5.03
2018-05-25T17:21:16.433Z,5.90
2018-05-25T17:23:42.465Z,5.80
2018-05-25T17:26:08.885Z,5.33
2018-05-25T17:28:34.880Z,5.70
2018-05-25T17:31:00.896Z,5.57
2018-05-25T17:33:26.847Z,5.57
2018-05-25T17:35:53.541Z,5.07
2018-05-25T17:38:19.538Z,5.70
2018-05-25T17:40:45.510Z,5.83
2018-05-25T17:43:11.993Z,5.97
2018-05-25T17:45:39.102Z,6.00
2018-05-25T17:48:05.111Z,5.73
2018-05-25T17:50:32.024Z,6.17
2018-05-25T17:52:58.045Z,6.10
2018-05-25T17:55:24.018Z,7.53
2018-05-25T17:57:50.055Z,10.40
2018-05-25T18:00:16.005Z,9.90
2018-05-25T18:02:42.085Z,14.30
2018-05-25T18:05:08.124Z,7.70
2018-05-25T18:07:34.110Z,8.63
2018-05-25T18:10:00.160Z,16.50
2018-05-25T18:12:26.896Z,8.87
2018-05-25T18:14:52.858Z,14.40
2018-05-25T18:17:19.612Z,13.83
2018-05-25T18:19:46.402Z,12.10
2018-05-25T18:22:12.916Z,8.53
2018-05-25T18:24:39.680Z,6.50
2018-05-25T18:27:05.666Z,6.53
2018-05-25T18:29:31.674Z,6.57
2018-05-25T18:31:57.693Z,6.27
2018-05-25T18:34:23.719Z,6.60
2018-05-25T18:36:50.451Z,6.80
2018-05-25T18:39:16.407Z,5.50
2018-05-25T18:41:43.184Z,6.50
2018-05-25T18:44:09.240Z,7.00
2018-05-25T18:46:35.243Z,6.73
2018-05-25T18:49:01.955Z,6.07
2018-05-25T18:51:27.945Z,6.57
2018-05-25T18:54:06.354Z,6.87
2018-05-25T18:56:33.139Z,8.03
2018-05-25T18:58:59.137Z,7.27
2018-05-25T19:01:25.827Z,7.30
2018-05-25T19:03:51.847Z,6.50
2018-05-25T19:06:17.790Z,6.20
2018-05-25T19:08:43.826Z,7.10
2018-05-25T19:11:10.039Z,7.67
2018-05-25T19:13:36.774Z,8.43
2018-05-25T19:16:04.223Z,8.43
2018-05-25T19:18:30.260Z,8.10
2018-05-25T19:20:56.261Z,7.70
2018-05-25T19:23:22.216Z,10.07
2018-05-25T19:25:48.515Z,8.30
2018-05-25T19:28:14.483Z,10.60
2018-05-25T19:30:40.482Z,9.00
2018-05-25T19:33:06.490Z,9.73
2018-05-25T19:35:32.474Z,8.97
2018-05-25T19:37:59.190Z,11.70
2018-05-25T19:40:25.137Z,12.10
2018-05-25T19:42:51.127Z,10.80
2018-05-25T19:45:17.086Z,10.67
2018-05-25T19:47:43.079Z,9.67
2018-05-25T19:50:09.900Z,9.20
2018-05-25T19:52:37.410Z,9.33
2018-05-25T19:55:03.359Z,9.87
2018-05-25T19:57:29.396Z,9.43
2018-05-25T19:59:55.393Z,10.20
2018-05-25T20:02:21.355Z,11.30
2018-05-25T20:04:47.363Z,10.07
2018-05-25T20:07:14.148Z,10.23
2018-05-25T20:09:40.381Z,9.80
2018-05-25T20:12:06.306Z,9.73
2018-05-25T20:14:33.034Z,9.90
2018-05-25T20:16:59.755Z,8.80
2018-05-25T20:19:25.735Z,10.43
2018-05-25T20:21:51.720Z,9.70
2018-05-25T20:24:17.678Z,10.57
2018-05-25T20:26:43.704Z,9.23
2018-05-25T20:29:09.783Z,9.93
2018-05-25T20:31:36.526Z,9.40
2018-05-25T20:34:02.525Z,9.83
2018-05-25T20:36:28.511Z,8.90
2018-05-25T20:38:54.491Z,8.17
2018-05-25T20:41:20.470Z,9.30
2018-05-25T20:43:46.432Z,9.00
2018-05-25T20:46:12.425Z,8.70
2018-05-25T20:48:38.433Z,9.10
2018-05-25T20:51:04.453Z,8.80
2018-05-25T20:53:30.485Z,10.00
2018-05-25T20:55:56.450Z,10.20
2018-05-25T20:58:22.423Z,9.30
2018-05-25T21:00:48.418Z,9.70
2018-05-25T21:03:14.464Z,8.30
2018-05-25T21:05:40.495Z,7.93
2018-05-25T21:08:06.527Z,8.20
2018-05-25T21:10:32.519Z,8.20
2018-05-25T21:12:58.544Z,8.70
2018-05-25T21:15:24.499Z,8.07
2018-05-25T21:17:50.523Z,8.90
2018-05-25T21:20:16.475Z,8.40
2018-05-25T21:22:42.447Z,8.47
2018-05-25T21:25:08.439Z,9.10
2018-05-25T21:27:34.427Z,9.57
2018-05-25T21:30:00.426Z,9.50
2018-05-25T21:32:27.208Z,8.83
2018-05-25T21:34:53.158Z,9.20
2018-05-25T21:37:19.194Z,9.37
2018-05-25T21:39:45.171Z,9.03
2018-05-25T21:42:11.239Z,9.03
2018-05-25T21:44:37.987Z,8.80
2018-05-25T21:47:04.791Z,9.20
2018-05-25T21:49:30.819Z,8.80
2018-05-25T21:51:56.794Z,8.80
2018-05-25T21:54:22.786Z,10.33
2018-05-25T21:56:48.732Z,10.37
2018-05-25T21:59:14.815Z,9.80
2018-05-25T22:01:40.861Z,10.00
2018-05-25T22:04:07.621Z,9.40
2018-05-25T22:06:34.318Z,10.47
2018-05-25T22:09:00.278Z,9.50
2018-05-25T22:11:26.270Z,9.10
2018-05-25T22:13:52.297Z,9.00
2018-05-25T22:16:18.255Z,8.40
2018-05-25T22:18:44.232Z,8.80
2018-05-25T22:21:11.004Z,9.23
2018-05-25T22:23:37.726Z,8.33
2018-05-25T22:26:03.711Z,8.50
2018-05-25T22:28:29.763Z,8.80
2018-05-25T22:30:55.775Z,8.17
2018-05-25T22:33:22.535Z,8.57
2018-05-25T22:35:48.420Z,8.13
2018-05-25T22:38:14.421Z,9.80
2018-05-25T22:40:40.538Z,8.60
2018-05-25T22:43:19.627Z,9.30
2018-05-25T22:45:57.989Z,8.67
2018-05-25T22:48:37.254Z,8.57
2018-05-25T22:51:16.575Z,8.40
2018-05-25T22:53:48.715Z,8.60
2018-05-25T22:56:14.755Z,8.37
2018-05-25T22:58:40.808Z,9.20
2018-05-25T23:01:06.772Z,9.37
2018-05-25T23:03:32.723Z,9.20
2018-05-25T23:05:58.866Z,9.20
2018-05-25T23:08:24.895Z,9.83
2018-05-25T23:10:50.938Z,9.10
2018-05-25T23:13:17.630Z,9.67
2018-05-25T23:15:43.607Z,9.70
2018-05-25T23:18:09.659Z,8.93
2018-05-25T23:20:36.367Z,10.80
2018-05-25T23:23:02.362Z,10.30
2018-05-25T23:25:29.098Z,9.90
2018-05-25T23:27:55.063Z,10.07
2018-05-25T23:30:21.795Z,9.60
2018-05-25T23:32:48.558Z,8.97
2018-05-25T23:35:15.287Z,9.30
2018-05-25T23:37:41.284Z,10.50
2018-05-25T23:40:07.254Z,11.00
2018-05-25T23:42:33.250Z,10.57
2018-05-25T23:44:59.300Z,10.17
2018-05-25T23:47:25.321Z,9.27
2018-05-25T23:49:51.307Z,9.17
2018-05-25T23:52:17.278Z,10.30
2018-05-25T23:54:43.370Z,10.17
2018-05-25T23:57:09.379Z,9.30
2018-05-25T23:59:35.382Z,10.57
